Terminal Aerodrome Forecast
Issued by NWS

Home | Current Version | Previous Version | Text Only | Print | Product List | Glossary On
Versions: 1 2 3 4 5 6 7 8 9 10 11 12 13 14 15 16 17 18 19
313
FTUS43 KDLH 260939 AAA
TAFHIB
TAF AMD
KHIB 260939Z 2610/2706 09003KT P6SM FEW004 OVC026
     FM261200 05004KT P6SM OVC007
     FM261900 01005KT P6SM OVC015
     FM262300 34004KT P6SM SCT015 BKN070
     FM270400 VRB03KT P6SM BKN015=

USA.gov is the U.S. government's official web portal to all federal, state and local government web resources and services.